createdAt,value
2022-11-19T00:00:09.752Z,80.47
2022-11-19T00:01:09.774Z,80.47
2022-11-19T00:02:09.884Z,80.27
2022-11-19T00:03:09.698Z,80.06
2022-11-19T00:04:09.774Z,80.16
2022-11-19T00:05:09.766Z,80.06
2022-11-19T00:06:09.641Z,79.96
2022-11-19T00:07:09.723Z,80.31
2022-11-19T00:08:09.614Z,80.62
2022-11-19T00:09:09.659Z,80.41
2022-11-19T00:10:09.586Z,80.31
2022-11-19T00:11:10.065Z,80.27
2022-11-19T00:12:09.635Z,80.16
2022-11-19T00:13:09.787Z,80.16
2022-11-19T00:14:09.544Z,80.06
2022-11-19T00:15:09.760Z,79.65
2022-11-19T00:16:09.818Z,79.75
2022-11-19T00:17:10.412Z,79.65
2022-11-19T00:18:09.549Z,79.65
2022-11-19T00:19:09.532Z,79.75
2022-11-19T00:20:09.496Z,79.58
2022-11-19T00:21:09.629Z,79.79
2022-11-19T00:22:09.499Z,80.21
2022-11-19T00:23:09.485Z,80.21
2022-11-19T00:24:09.492Z,80.41
2022-11-19T00:25:09.515Z,80.66
2022-11-19T00:26:10.437Z,80.62
2022-11-19T00:27:09.548Z,80.31
2022-11-19T00:28:09.526Z,80.41
2022-11-19T00:29:10.849Z,80.66
2022-11-19T00:30:19.840Z,80.55
2022-11-19T00:31:09.595Z,80.45
2022-11-19T00:32:09.374Z,80.04
2022-11-19T00:33:09.357Z,80.55
2022-11-19T00:34:16.842Z,80.45
2022-11-19T00:35:09.306Z,80.35
2022-11-19T00:36:09.330Z,80.14
2022-11-19T00:37:09.295Z,80.35
2022-11-19T00:38:09.277Z,80.24
2022-11-19T00:39:09.279Z,80.35
2022-11-19T00:40:09.859Z,80.45
2022-11-19T00:41:09.267Z,80.14
2022-11-19T00:42:09.261Z,80.14
2022-11-19T00:43:09.292Z,80.24
2022-11-19T00:44:09.213Z,80.31
2022-11-19T00:45:09.214Z,80.10
2022-11-19T00:46:09.188Z,79.90
2022-11-19T00:47:09.186Z,80.00
2022-11-19T00:48:09.180Z,79.90
2022-11-19T00:49:09.169Z,80.04
2022-11-19T00:50:09.185Z,80.04
2022-11-19T00:51:09.141Z,80.04
2022-11-19T00:52:09.133Z,80.35
2022-11-19T00:53:09.150Z,80.45
2022-11-19T00:54:09.112Z,80.04
2022-11-19T00:55:09.107Z,80.24
2022-11-19T00:56:09.121Z,80.45
2022-11-19T00:57:09.073Z,80.55
2022-11-19T00:58:09.083Z,80.55
2022-11-19T00:59:09.070Z,80.24
2022-11-19T01:00:09.065Z,80.35
2022-11-19T01:01:09.178Z,80.24
2022-11-19T01:02:09.027Z,79.93
2022-11-19T01:03:09.019Z,79.93
2022-11-19T01:04:09.217Z,80.35
2022-11-19T01:05:08.991Z,80.87
2022-11-19T01:06:09.092Z,81.18
2022-11-19T01:07:09.062Z,81.07
2022-11-19T01:08:08.965Z,81.28
2022-11-19T01:09:08.956Z,81.11
2022-11-19T01:10:08.944Z,81.11
2022-11-19T01:11:08.947Z,81.21
2022-11-19T01:12:08.918Z,80.90
2022-11-19T01:13:08.928Z,81.01
2022-11-19T01:14:08.898Z,81.11
2022-11-19T01:15:08.882Z,81.21
2022-11-19T01:16:08.883Z,81.11
2022-11-19T01:17:09.143Z,81.11
2022-11-19T01:18:08.861Z,81.01
2022-11-19T01:19:08.854Z,80.66
2022-11-19T01:20:08.924Z,80.87
2022-11-19T01:21:08.828Z,79.93
2022-11-19T01:22:08.825Z,80.24
2022-11-19T01:23:08.801Z,80.35
2022-11-19T01:24:08.839Z,80.04
2022-11-19T01:25:08.774Z,80.04
2022-11-19T01:26:08.785Z,79.72
2022-11-19T01:27:08.749Z,80.04
2022-11-19T01:28:08.758Z,79.83
2022-11-19T01:29:08.732Z,79.51
2022-11-19T01:30:08.731Z,79.72
2022-11-19T01:31:08.730Z,80.07
2022-11-19T01:32:08.698Z,79.65
2022-11-19T01:33:08.696Z,79.76
2022-11-19T01:34:16.251Z,80.07
2022-11-19T01:35:08.660Z,80.18
2022-11-19T01:36:08.668Z,80.52
2022-11-19T01:37:08.647Z,80.52
2022-11-19T01:38:08.630Z,80.52
2022-11-19T01:39:08.654Z,80.52
2022-11-19T01:40:08.658Z,80.42
2022-11-19T01:41:08.612Z,80.52
2022-11-19T01:42:08.608Z,80.83
2022-11-19T01:43:08.578Z,80.73
2022-11-19T01:44:08.579Z,80.28
2022-11-19T01:45:08.568Z,80.11
2022-11-19T01:46:08.555Z,80.07
2022-11-19T01:47:08.554Z,79.97
2022-11-19T01:48:08.529Z,80.18
2022-11-19T01:49:08.521Z,80.07
2022-11-19T01:50:08.506Z,79.97
2022-11-19T01:51:08.499Z,79.86
2022-11-19T01:52:08.505Z,80.00
2022-11-19T01:53:08.497Z,80.32
2022-11-19T01:54:08.481Z,80.63
2022-11-19T01:55:08.460Z,80.32
2022-11-19T01:56:08.446Z,80.28
2022-11-19T01:57:08.439Z,80.49
2022-11-19T01:58:08.470Z,80.28
2022-11-19T01:59:08.434Z,79.86
2022-11-19T02:00:08.409Z,79.86
2022-11-19T02:01:08.432Z,79.86
2022-11-19T02:02:08.399Z,79.44
2022-11-19T02:03:08.386Z,79.13
2022-11-19T02:04:08.381Z,79.34
2022-11-19T02:05:08.355Z,79.34
2022-11-19T02:06:08.344Z,79.24
2022-11-19T02:07:08.359Z,79.24
2022-11-19T02:08:08.338Z,79.34
2022-11-19T02:09:08.305Z,79.44
2022-11-19T02:10:08.304Z,79.55
2022-11-19T02:11:08.302Z,79.76
2022-11-19T02:12:08.290Z,79.58
2022-11-19T02:13:08.262Z,79.69
2022-11-19T02:14:08.254Z,79.76
2022-11-19T02:15:08.262Z,79.34
2022-11-19T02:16:08.242Z,79.34
2022-11-19T02:17:08.901Z,79.65
2022-11-19T02:18:08.297Z,79.44
2022-11-19T02:19:08.195Z,79.65
2022-11-19T02:20:08.200Z,79.76
2022-11-19T02:21:08.211Z,79.65
2022-11-19T02:22:08.205Z,79.34
2022-11-19T02:23:08.162Z,79.13
2022-11-19T02:24:08.145Z,79.38
2022-11-19T02:25:08.137Z,79.38
2022-11-19T02:26:08.128Z,79.58
2022-11-19T02:27:08.120Z,79.58
2022-11-19T02:28:08.122Z,79.90
2022-11-19T02:29:08.093Z,79.80
2022-11-19T02:30:08.098Z,79.58
2022-11-19T02:31:08.092Z,79.48
2022-11-19T02:32:08.078Z,79.58
2022-11-19T02:33:08.065Z,79.06
2022-11-19T02:34:15.550Z,78.96
2022-11-19T02:35:08.025Z,78.96
2022-11-19T02:36:08.059Z,79.27
2022-11-19T02:37:08.012Z,79.58
2022-11-19T02:38:08.010Z,79.80
2022-11-19T02:39:08.005Z,79.69
2022-11-19T02:40:07.973Z,79.58
2022-11-19T02:41:07.970Z,79.27
2022-11-19T02:42:07.951Z,79.17
2022-11-19T02:43:07.956Z,79.17
2022-11-19T02:44:07.956Z,79.31
2022-11-19T02:45:08.029Z,79.83
2022-11-19T02:46:07.930Z,79.72
2022-11-19T02:47:07.902Z,79.38
2022-11-19T02:48:07.941Z,79.17
2022-11-19T02:49:07.878Z,79.06
2022-11-19T02:50:07.870Z,79.27
2022-11-19T02:51:07.861Z,79.27
2022-11-19T02:52:07.850Z,78.96
2022-11-19T02:53:07.849Z,78.96
2022-11-19T02:54:07.857Z,78.75
2022-11-19T02:55:07.808Z,78.89
2022-11-19T02:56:07.807Z,79.10
2022-11-19T02:57:07.794Z,79.27
2022-11-19T02:58:07.804Z,79.17
2022-11-19T02:59:07.795Z,78.96
2022-11-19T03:00:07.760Z,78.79
2022-11-19T03:01:07.816Z,79.21
2022-11-19T03:02:07.739Z,79.41
2022-11-19T03:03:07.730Z,79.31
2022-11-19T03:04:07.728Z,79.21
2022-11-19T03:05:07.701Z,79.17
2022-11-19T03:06:07.693Z,79.27
2022-11-19T03:07:07.706Z,78.96
2022-11-19T03:08:07.682Z,78.86
2022-11-19T03:09:07.667Z,78.75
2022-11-19T03:10:07.653Z,78.89
2022-11-19T03:11:07.662Z,79.21
2022-11-19T03:12:07.628Z,79.21
2022-11-19T03:13:07.625Z,79.21
2022-11-19T03:14:07.624Z,79.10
2022-11-19T03:15:07.609Z,79.00
2022-11-19T03:16:07.600Z,79.00
2022-11-19T03:17:07.577Z,79.31
2022-11-19T03:18:07.605Z,79.52
2022-11-19T03:19:07.614Z,79.41
2022-11-19T03:20:07.548Z,79.10
2022-11-19T03:21:07.541Z,79.21
2022-11-19T03:22:07.524Z,79.35
2022-11-19T03:23:07.516Z,79.52
2022-11-19T03:24:07.526Z,79.72
2022-11-19T03:25:07.489Z,79.31
2022-11-19T03:26:07.485Z,79.00
2022-11-19T03:27:07.481Z,78.89
2022-11-19T03:28:07.464Z,79.00
2022-11-19T03:29:07.460Z,79.00
2022-11-19T03:30:07.482Z,79.21
2022-11-19T03:31:07.447Z,79.00
2022-11-19T03:32:07.414Z,79.00
2022-11-19T03:33:07.418Z,79.31
2022-11-19T03:34:13.959Z,79.10
2022-11-19T03:35:07.387Z,79.00
2022-11-19T03:36:07.363Z,79.00
2022-11-19T03:37:07.355Z,79.21
2022-11-19T03:38:07.363Z,78.89
2022-11-19T03:39:07.349Z,78.69
2022-11-19T03:40:07.327Z,78.55
2022-11-19T03:41:07.353Z,78.34
2022-11-19T03:42:07.304Z,78.23
2022-11-19T03:43:07.309Z,78.38
2022-11-19T03:44:07.286Z,78.58
2022-11-19T03:45:07.333Z,78.89
2022-11-19T03:46:07.284Z,79.10
2022-11-19T03:47:07.272Z,79.31
2022-11-19T03:48:07.246Z,79.31
2022-11-19T03:49:07.246Z,78.89
2022-11-19T03:50:07.286Z,78.79
2022-11-19T03:51:07.232Z,78.79
2022-11-19T03:52:07.212Z,78.79
2022-11-19T03:53:07.219Z,78.79
2022-11-19T03:54:07.183Z,78.79
2022-11-19T03:55:07.174Z,78.89
2022-11-19T03:56:07.160Z,78.89
2022-11-19T03:57:07.156Z,78.79
2022-11-19T03:58:07.152Z,78.58
2022-11-19T03:59:08.599Z,78.79
2022-11-19T04:00:07.120Z,78.79
2022-11-19T04:01:07.124Z,78.89
2022-11-19T04:02:07.177Z,78.58
2022-11-19T04:03:07.130Z,78.83
2022-11-19T04:04:07.073Z,78.93
2022-11-19T04:05:07.079Z,78.72
2022-11-19T04:06:07.059Z,78.83
2022-11-19T04:07:07.115Z,78.83
2022-11-19T04:08:07.099Z,78.72
2022-11-19T04:09:07.037Z,78.83
2022-11-19T04:10:07.018Z,78.93
2022-11-19T04:11:39.022Z,79.00
2022-11-19T04:12:39.992Z,78.48
2022-11-19T04:13:39.979Z,78.38
2022-11-19T04:14:39.986Z,78.06
2022-11-19T04:15:39.962Z,78.27
2022-11-19T04:16:39.965Z,78.38
2022-11-19T04:17:39.931Z,78.48
2022-11-19T04:18:39.929Z,78.17
2022-11-19T04:19:39.951Z,78.06
2022-11-19T04:20:39.935Z,78.06
2022-11-19T04:21:39.904Z,78.27
2022-11-19T04:22:39.925Z,78.27
2022-11-19T04:23:39.883Z,78.06
2022-11-19T04:24:39.939Z,77.96
2022-11-19T04:25:39.885Z,77.86
2022-11-19T04:26:39.844Z,78.06
2022-11-19T04:27:39.826Z,78.27
2022-11-19T04:28:39.816Z,78.27
2022-11-19T04:29:39.811Z,78.48
2022-11-19T04:30:39.807Z,78.58
2022-11-19T04:31:39.808Z,78.27
2022-11-19T04:32:40.036Z,77.89
2022-11-19T04:33:47.290Z,78.10
2022-11-19T04:34:39.763Z,77.89
2022-11-19T04:35:39.764Z,78.10
2022-11-19T04:36:39.734Z,78.31
2022-11-19T04:37:39.720Z,78.62
2022-11-19T04:38:39.726Z,78.41
2022-11-19T04:39:39.710Z,78.41
2022-11-19T04:40:39.704Z,78.83
2022-11-19T04:41:39.698Z,78.93
2022-11-19T04:42:39.661Z,78.93
2022-11-19T04:43:39.658Z,78.93
2022-11-19T04:44:39.699Z,78.93
2022-11-19T04:45:39.653Z,78.83
2022-11-19T04:46:39.637Z,78.72
2022-11-19T04:47:39.615Z,78.72
2022-11-19T04:48:39.595Z,78.76
2022-11-19T04:49:39.593Z,78.86
2022-11-19T04:50:39.584Z,79.17
2022-11-19T04:51:39.592Z,79.14
2022-11-19T04:52:41.343Z,79.14
2022-11-19T04:53:39.552Z,78.62
2022-11-19T04:54:39.541Z,78.31
2022-11-19T04:55:39.527Z,78.41
2022-11-19T04:56:39.520Z,78.52
2022-11-19T04:57:39.605Z,78.62
2022-11-19T04:58:39.499Z,78.72
2022-11-19T04:59:39.483Z,78.72
2022-11-19T05:00:39.493Z,78.72
2022-11-19T05:01:39.493Z,78.83
2022-11-19T05:02:39.464Z,78.72
2022-11-19T05:03:39.450Z,78.62
2022-11-19T05:04:39.424Z,78.52
2022-11-19T05:05:39.421Z,78.62
2022-11-19T05:06:39.410Z,78.52
2022-11-19T05:07:39.910Z,78.20
2022-11-19T05:08:39.377Z,78.10
2022-11-19T05:09:39.375Z,78.20
2022-11-19T05:10:39.368Z,78.10
2022-11-19T05:11:39.409Z,78.10
2022-11-19T05:12:39.343Z,78.14
2022-11-19T05:13:39.353Z,78.24
2022-11-19T05:14:39.347Z,78.03
2022-11-19T05:15:39.317Z,78.03
2022-11-19T05:16:39.295Z,78.03
2022-11-19T05:17:39.284Z,78.14
2022-11-19T05:18:39.278Z,78.24
2022-11-19T05:19:39.294Z,78.45
2022-11-19T05:20:39.252Z,78.59
2022-11-19T05:21:39.335Z,78.49
2022-11-19T05:22:39.241Z,78.49
2022-11-19T05:23:39.276Z,78.69
2022-11-19T05:24:39.228Z,78.73
2022-11-19T05:25:39.215Z,78.94
2022-11-19T05:26:39.199Z,79.04
2022-11-19T05:27:39.171Z,79.04
2022-11-19T05:28:40.084Z,79.04
2022-11-19T05:29:39.170Z,79.14
2022-11-19T05:30:39.762Z,79.35
2022-11-19T05:31:39.165Z,79.35
2022-11-19T05:32:39.126Z,79.46
2022-11-19T05:33:47.647Z,79.46
2022-11-19T05:34:39.323Z,79.46
2022-11-19T05:35:39.086Z,79.39
2022-11-19T05:36:39.090Z,79.39
2022-11-19T05:37:39.067Z,79.39
2022-11-19T05:38:39.062Z,79.39
2022-11-19T05:39:39.061Z,79.28
2022-11-19T05:40:39.046Z,79.49
2022-11-19T05:41:39.028Z,79.60
2022-11-19T05:42:39.023Z,79.60
2022-11-19T05:43:39.037Z,79.60
2022-11-19T05:44:39.042Z,79.60
2022-11-19T05:45:39.019Z,79.39
2022-11-19T05:46:38.991Z,79.53
2022-11-19T05:47:38.968Z,79.70
2022-11-19T05:48:38.971Z,79.63
2022-11-19T05:49:38.948Z,79.53
2022-11-19T05:50:38.929Z,79.53
2022-11-19T05:51:38.934Z,79.84
2022-11-19T05:52:38.923Z,79.74
2022-11-19T05:53:38.907Z,79.74
2022-11-19T05:54:38.903Z,79.74
2022-11-19T05:55:38.884Z,79.53
2022-11-19T05:56:38.887Z,79.43
2022-11-19T05:57:38.865Z,79.43
2022-11-19T05:58:38.845Z,79.53
2022-11-19T05:59:43.602Z,79.43
2022-11-19T06:00:38.818Z,79.63
2022-11-19T06:01:38.825Z,79.74
2022-11-19T06:02:38.830Z,79.63
2022-11-19T06:03:38.805Z,79.32
2022-11-19T06:04:38.801Z,79.22
2022-11-19T06:05:40.467Z,79.22
2022-11-19T06:06:38.761Z,79.11
2022-11-19T06:07:38.817Z,79.22
2022-11-19T06:08:38.892Z,79.22
2022-11-19T06:09:38.724Z,78.91
2022-11-19T06:10:38.719Z,78.94
2022-11-19T06:11:38.711Z,79.25
2022-11-19T06:12:42.586Z,79.25
2022-11-19T06:13:38.688Z,79.15
2022-11-19T06:14:38.675Z,79.15
2022-11-19T06:15:39.291Z,78.94
2022-11-19T06:16:38.656Z,78.83
2022-11-19T06:17:38.633Z,78.94
2022-11-19T06:18:38.662Z,79.05
2022-11-19T06:19:38.641Z,79.25
2022-11-19T06:20:38.604Z,79.29
2022-11-19T06:21:38.632Z,79.39
2022-11-19T06:22:38.585Z,79.29
2022-11-19T06:23:38.724Z,79.29
2022-11-19T06:24:38.567Z,79.19
2022-11-19T06:25:38.569Z,79.08
2022-11-19T06:26:39.281Z,79.08
2022-11-19T06:27:38.525Z,78.87
2022-11-19T06:28:38.542Z,78.77
2022-11-19T06:29:38.507Z,78.77
2022-11-19T06:30:38.961Z,78.97
2022-11-19T06:31:38.482Z,78.87
2022-11-19T06:32:38.512Z,78.77
2022-11-19T06:33:46.995Z,79.01
2022-11-19T06:34:38.452Z,79.19
2022-11-19T06:35:38.454Z,79.19
2022-11-19T06:36:42.788Z,78.87
2022-11-19T06:37:38.461Z,78.45
2022-11-19T06:38:38.407Z,78.59
2022-11-19T06:39:38.395Z,78.70
2022-11-19T06:40:38.484Z,78.70
2022-11-19T06:41:38.408Z,78.59
2022-11-19T06:42:38.396Z,78.49
2022-11-19T06:43:38.351Z,78.70
2022-11-19T06:44:38.341Z,78.91
2022-11-19T06:45:38.386Z,79.01
2022-11-19T06:46:38.331Z,78.91
2022-11-19T06:47:38.316Z,78.49
2022-11-19T06:48:38.356Z,78.49
2022-11-19T06:49:38.295Z,78.28
2022-11-19T06:50:38.327Z,78.07
2022-11-19T06:51:38.264Z,77.34
2022-11-19T06:52:38.264Z,77.24
2022-11-19T06:53:38.282Z,77.55
2022-11-19T06:54:42.802Z,77.66
2022-11-19T06:55:38.287Z,77.55
2022-11-19T06:56:38.217Z,77.34
2022-11-19T06:57:38.215Z,77.45
2022-11-19T06:58:38.273Z,77.24
2022-11-19T06:59:38.180Z,77.14
2022-11-19T07:00:38.190Z,76.82
2022-11-19T07:01:38.228Z,76.92
2022-11-19T07:02:38.400Z,76.92
2022-11-19T07:03:38.150Z,76.40
2022-11-19T07:04:38.130Z,75.78
2022-11-19T07:05:38.308Z,75.67
2022-11-19T07:06:38.156Z,75.67
2022-11-19T07:07:38.154Z,75.57
2022-11-19T07:08:38.092Z,75.78
2022-11-19T07:09:38.074Z,75.67
2022-11-19T07:10:38.071Z,75.60
2022-11-19T07:11:38.098Z,75.92
2022-11-19T07:12:38.076Z,76.23
2022-11-19T07:13:38.027Z,76.33
2022-11-19T07:14:38.035Z,76.02
2022-11-19T07:15:38.011Z,75.78
2022-11-19T07:16:38.028Z,75.39
2022-11-19T07:17:38.000Z,74.94
2022-11-19T07:18:38.007Z,74.98
2022-11-19T07:19:37.965Z,74.77
2022-11-19T07:20:37.954Z,75.36
2022-11-19T07:21:37.953Z,74.94
2022-11-19T07:22:37.977Z,74.56
2022-11-19T07:23:37.946Z,74.66
2022-11-19T07:24:37.945Z,74.87
2022-11-19T07:25:37.900Z,74.52
2022-11-19T07:26:37.888Z,74.52
2022-11-19T07:27:37.898Z,74.73
2022-11-19T07:28:37.871Z,74.84
2022-11-19T07:29:37.869Z,74.94
2022-11-19T07:30:37.852Z,74.73
2022-11-19T07:31:37.835Z,74.11
2022-11-19T07:32:37.863Z,74.35
2022-11-19T07:33:45.321Z,74.35
2022-11-19T07:34:37.832Z,74.35
2022-11-19T07:35:37.802Z,74.35
2022-11-19T07:36:37.778Z,74.14
2022-11-19T07:37:37.772Z,74.56
2022-11-19T07:38:37.789Z,74.66
2022-11-19T07:39:37.752Z,74.42
2022-11-19T07:40:37.750Z,74.42
2022-11-19T07:41:37.733Z,74.52
2022-11-19T07:42:37.747Z,73.93
2022-11-19T07:43:37.745Z,73.83
2022-11-19T07:44:37.716Z,73.83
2022-11-19T07:45:37.691Z,73.79
2022-11-19T07:46:37.752Z,73.69
2022-11-19T07:47:37.704Z,73.69
2022-11-19T07:48:37.687Z,73.27
2022-11-19T07:49:37.651Z,73.58
2022-11-19T07:50:37.665Z,73.90
2022-11-19T07:51:37.621Z,73.17
2022-11-19T07:52:37.627Z,73.27
2022-11-19T07:53:37.604Z,73.58
2022-11-19T07:54:37.606Z,73.69
2022-11-19T07:55:37.591Z,73.72
2022-11-19T07:56:37.567Z,73.72
2022-11-19T07:57:37.574Z,73.62
2022-11-19T07:58:37.548Z,74.04
2022-11-19T07:59:37.535Z,74.04
2022-11-19T08:00:37.535Z,74.45
2022-11-19T08:01:37.556Z,74.04
2022-11-19T08:02:37.573Z,73.69
2022-11-19T08:03:37.496Z,74.11
2022-11-19T08:04:37.501Z,73.79
2022-11-19T08:05:37.484Z,73.27
2022-11-19T08:06:37.467Z,73.27
2022-11-19T08:07:37.562Z,72.75
2022-11-19T08:08:37.450Z,72.64
2022-11-19T08:09:37.428Z,72.44
2022-11-19T08:10:37.429Z,72.02
2022-11-19T08:11:37.473Z,71.81
2022-11-19T08:12:37.403Z,72.02
2022-11-19T08:13:37.392Z,72.02
2022-11-19T08:14:37.380Z,71.81
2022-11-19T08:15:37.400Z,72.33
2022-11-19T08:16:37.356Z,72.44
2022-11-19T08:17:37.361Z,71.60
2022-11-19T08:18:37.349Z,71.19
2022-11-19T08:19:37.322Z,71.39
2022-11-19T08:20:37.333Z,71.50
2022-11-19T08:21:37.318Z,71.70
2022-11-19T08:22:37.336Z,71.39
2022-11-19T08:23:37.280Z,71.36
2022-11-19T08:24:37.290Z,71.39
2022-11-19T08:25:37.291Z,71.36
2022-11-19T08:26:37.263Z,71.36
2022-11-19T08:27:37.233Z,71.04
2022-11-19T08:28:37.218Z,71.26
2022-11-19T08:29:37.256Z,71.04
2022-11-19T08:30:37.198Z,70.84
2022-11-19T08:31:37.226Z,70.94
2022-11-19T08:32:37.503Z,70.32
2022-11-19T08:33:37.192Z,70.18
2022-11-19T08:34:37.174Z,70.11
2022-11-19T08:35:37.177Z,69.97
2022-11-19T08:36:37.187Z,69.38
2022-11-19T08:37:37.152Z,69.79
2022-11-19T08:38:38.760Z,70.32
2022-11-19T08:39:37.213Z,70.39
2022-11-19T08:40:37.103Z,70.07
2022-11-19T08:41:37.089Z,69.56
2022-11-19T08:42:37.073Z,69.03
2022-11-19T08:43:37.080Z,69.13
2022-11-19T08:44:37.077Z,69.42
2022-11-19T08:45:37.041Z,69.42
2022-11-19T08:46:37.032Z,69.42
2022-11-19T08:47:37.024Z,68.87
2022-11-19T08:48:37.021Z,68.13
2022-11-19T08:49:37.334Z,68.55
2022-11-19T08:50:37.048Z,68.32
2022-11-19T08:51:36.990Z,67.27
2022-11-19T08:52:36.968Z,66.96
2022-11-19T08:53:36.949Z,67.17
2022-11-19T08:54:36.943Z,67.03
2022-11-19T08:55:36.974Z,66.83
2022-11-19T08:56:37.032Z,66.30
2022-11-19T08:57:36.908Z,66.41
2022-11-19T08:58:37.438Z,65.65
2022-11-19T08:59:36.938Z,65.34
2022-11-19T09:00:36.926Z,65.03
2022-11-19T09:01:36.863Z,65.75
2022-11-19T09:02:36.873Z,65.34
2022-11-19T09:03:36.894Z,65.10
2022-11-19T09:04:36.848Z,64.58
2022-11-19T09:05:36.846Z,65.00
2022-11-19T09:06:36.808Z,63.96
2022-11-19T09:07:36.830Z,63.23
2022-11-19T09:08:36.793Z,63.02
2022-11-19T09:09:36.789Z,63.20
2022-11-19T09:10:36.817Z,63.93
2022-11-19T09:11:42.264Z,63.69
2022-11-19T09:12:36.761Z,63.38
2022-11-19T09:13:36.759Z,64.11
2022-11-19T09:14:36.726Z,62.52
2022-11-19T09:15:36.742Z,62.52
2022-11-19T09:16:36.709Z,62.52
2022-11-19T09:17:36.697Z,62.00
2022-11-19T09:18:36.698Z,61.79
2022-11-19T09:19:36.680Z,61.38
2022-11-19T09:20:36.672Z,60.65
2022-11-19T09:21:36.679Z,60.96
2022-11-19T09:22:36.648Z,61.90
2022-11-19T09:23:36.632Z,62.07
2022-11-19T09:24:36.620Z,61.24
2022-11-19T09:25:36.632Z,61.14
2022-11-19T09:26:36.613Z,61.66
2022-11-19T09:27:36.583Z,61.35
2022-11-19T09:28:36.572Z,60.39
2022-11-19T09:29:36.571Z,60.52
2022-11-19T09:30:36.558Z,60.08
2022-11-19T09:31:36.586Z,59.66
2022-11-19T09:32:36.534Z,59.45
2022-11-19T09:33:36.554Z,58.83
2022-11-19T09:34:36.529Z,58.62
2022-11-19T09:35:36.503Z,58.52
2022-11-19T09:36:36.605Z,58.62
2022-11-19T09:37:36.494Z,58.62
2022-11-19T09:38:36.476Z,58.59
2022-11-19T09:39:36.466Z,58.39
2022-11-19T09:40:36.465Z,58.49
2022-11-19T09:41:36.471Z,57.97
2022-11-19T09:42:36.443Z,58.28
2022-11-19T09:43:36.413Z,57.87
2022-11-19T09:44:36.413Z,57.66
2022-11-19T09:45:36.398Z,57.01
2022-11-19T09:46:36.410Z,55.79
2022-11-19T09:47:36.379Z,56.21
2022-11-19T09:48:36.395Z,56.10
2022-11-19T09:49:36.358Z,56.21
2022-11-19T09:50:36.390Z,56.41
2022-11-19T09:51:36.366Z,56.52
2022-11-19T09:52:36.330Z,56.41
2022-11-19T09:53:36.323Z,56.52
2022-11-19T09:54:36.296Z,56.49
2022-11-19T09:55:36.284Z,55.77
2022-11-19T09:56:36.267Z,55.66
2022-11-19T09:57:36.274Z,55.35
2022-11-19T09:58:36.291Z,55.85
2022-11-19T09:59:36.251Z,55.15
2022-11-19T10:00:36.223Z,55.66
2022-11-19T10:01:36.237Z,55.22
2022-11-19T10:02:36.281Z,55.46
2022-11-19T10:03:36.213Z,55.95
2022-11-19T10:04:36.199Z,55.54
2022-11-19T10:05:36.187Z,55.43
2022-11-19T10:06:36.166Z,55.12
2022-11-19T10:07:36.257Z,56.05
2022-11-19T10:08:36.168Z,55.95
2022-11-19T10:09:36.150Z,56.03
2022-11-19T10:10:36.128Z,54.16
2022-11-19T10:11:36.128Z,53.20
2022-11-19T10:12:36.103Z,53.31
2022-11-19T10:13:36.099Z,53.41
2022-11-19T10:14:36.073Z,53.10
2022-11-19T10:15:37.857Z,52.90
2022-11-19T10:16:36.082Z,53.52
2022-11-19T10:17:36.043Z,52.80
2022-11-19T10:18:36.047Z,53.62
2022-11-19T10:19:36.081Z,52.87
2022-11-19T10:20:36.015Z,52.87
2022-11-19T10:21:36.008Z,52.04
2022-11-19T10:22:35.993Z,52.38
2022-11-19T10:23:35.991Z,52.87
2022-11-19T10:24:36.014Z,53.18
2022-11-19T10:25:35.964Z,52.56
2022-11-19T10:26:35.947Z,52.25
2022-11-19T10:27:35.942Z,51.84
2022-11-19T10:28:35.912Z,52.25
2022-11-19T10:29:35.933Z,52.36
2022-11-19T10:30:35.928Z,51.42
2022-11-19T10:31:35.914Z,52.46
2022-11-19T10:32:36.429Z,52.87
2022-11-19T10:33:44.393Z,52.56
2022-11-19T10:34:35.908Z,52.23
2022-11-19T10:35:35.855Z,52.02
2022-11-19T10:36:38.398Z,51.71
2022-11-19T10:37:35.845Z,52.00
2022-11-19T10:38:35.866Z,52.31
2022-11-19T10:39:35.856Z,52.31
2022-11-19T10:40:35.791Z,52.39
2022-11-19T10:41:35.834Z,52.91
2022-11-19T10:42:35.764Z,50.92
2022-11-19T10:43:35.764Z,50.29
2022-11-19T10:44:35.765Z,49.26
2022-11-19T10:45:35.759Z,49.88
2022-11-19T10:46:38.464Z,50.50
2022-11-19T10:47:35.709Z,51.23
2022-11-19T10:48:35.701Z,49.57
2022-11-19T10:49:35.709Z,49.78
2022-11-19T10:50:35.726Z,49.55
2022-11-19T10:51:35.675Z,49.76
2022-11-19T10:52:35.667Z,49.86
2022-11-19T10:53:35.689Z,49.34
2022-11-19T10:54:35.656Z,49.86
2022-11-19T10:55:35.659Z,50.17
2022-11-19T10:56:35.631Z,50.15
2022-11-19T10:57:35.617Z,49.01
2022-11-19T10:58:35.615Z,48.91
2022-11-19T10:59:35.589Z,49.34
2022-11-19T11:00:35.635Z,49.24
2022-11-19T11:01:35.573Z,49.65
2022-11-19T11:02:35.556Z,49.55
2022-11-19T11:03:35.555Z,49.24
2022-11-19T11:04:35.543Z,48.95
2022-11-19T11:05:35.567Z,49.05
2022-11-19T11:06:38.407Z,50.09
2022-11-19T11:07:35.558Z,49.37
2022-11-19T11:08:35.510Z,49.96
2022-11-19T11:09:35.479Z,49.14
2022-11-19T11:10:35.554Z,49.11
2022-11-19T11:11:35.465Z,48.49
2022-11-19T11:12:35.473Z,48.80
2022-11-19T11:13:35.444Z,48.70
2022-11-19T11:14:35.451Z,48.29
2022-11-19T11:15:35.436Z,47.85
2022-11-19T11:16:37.920Z,47.96
2022-11-19T11:17:35.421Z,47.75
2022-11-19T11:18:35.410Z,47.03
2022-11-19T11:19:35.382Z,47.65
2022-11-19T11:20:35.418Z,47.24
2022-11-19T11:21:35.357Z,47.16
2022-11-19T11:22:35.356Z,47.36
2022-11-19T11:23:35.365Z,48.19
2022-11-19T11:24:35.352Z,49.22
2022-11-19T11:25:35.352Z,47.67
2022-11-19T11:26:35.324Z,47.67
2022-11-19T11:27:35.315Z,47.98
2022-11-19T11:28:35.301Z,47.46
2022-11-19T11:29:35.279Z,47.98
2022-11-19T11:30:35.289Z,48.47
2022-11-19T11:31:35.263Z,48.47
2022-11-19T11:32:35.274Z,48.24
2022-11-19T11:33:43.771Z,47.83
2022-11-19T11:34:35.228Z,47.71
2022-11-19T11:35:35.224Z,47.19
2022-11-19T11:36:35.196Z,46.45
2022-11-19T11:37:35.208Z,45.94
2022-11-19T11:38:35.189Z,45.65
2022-11-19T11:39:35.173Z,46.19
2022-11-19T11:40:35.165Z,46.62
2022-11-19T11:45:09.232Z,46.92
2022-11-19T11:46:10.238Z,47.44
2022-11-19T11:47:10.220Z,46.59
2022-11-19T11:48:10.234Z,46.49
2022-11-19T11:49:12.762Z,46.28
2022-11-19T11:50:10.170Z,47.01
2022-11-19T11:51:10.163Z,47.63
2022-11-19T11:52:10.157Z,46.49
2022-11-19T11:53:10.207Z,46.39
2022-11-19T11:54:15.085Z,46.39
2022-11-19T11:55:10.129Z,46.88
2022-11-19T11:56:10.116Z,47.19
2022-11-19T11:57:10.749Z,46.26
2022-11-19T11:58:10.091Z,46.16
2022-11-19T11:59:10.128Z,46.86
2022-11-19T12:00:10.091Z,45.65
2022-11-19T12:01:15.315Z,46.06
2022-11-19T12:02:10.074Z,46.47
2022-11-19T12:03:10.038Z,45.95
2022-11-19T12:04:10.020Z,46.58
2022-11-19T12:05:10.027Z,46.16
2022-11-19T12:06:09.999Z,46.47
2022-11-19T12:07:10.038Z,46.58
2022-11-19T12:08:09.979Z,46.86
2022-11-19T12:09:09.982Z,47.27
2022-11-19T12:10:09.989Z,47.15
2022-11-19T12:11:09.938Z,46.94
2022-11-19T12:12:09.943Z,46.30
2022-11-19T12:13:09.909Z,46.41
2022-11-19T12:14:11.306Z,46.28
2022-11-19T12:15:09.905Z,44.53
2022-11-19T12:16:09.895Z,45.56
2022-11-19T12:17:09.902Z,45.34
2022-11-19T12:18:09.876Z,45.13
2022-11-19T12:19:09.853Z,45.52
2022-11-19T12:20:09.866Z,45.09
2022-11-19T12:21:11.658Z,44.47
2022-11-19T12:22:09.823Z,43.73
2022-11-19T12:23:09.844Z,43.63
2022-11-19T12:24:09.821Z,42.69
2022-11-19T12:25:09.784Z,41.13
2022-11-19T12:26:09.797Z,43.26
2022-11-19T12:27:09.773Z,41.15
2022-11-19T12:28:09.763Z,39.26
2022-11-19T12:29:09.746Z,38.09
2022-11-19T12:30:09.726Z,37.28
2022-11-19T12:31:09.740Z,37.09
2022-11-19T12:32:09.705Z,37.93
2022-11-19T12:33:09.739Z,38.37
2022-11-19T12:34:09.685Z,39.21
2022-11-19T12:35:09.682Z,39.43
2022-11-19T12:36:09.674Z,40.59
2022-11-19T12:37:09.678Z,42.05
2022-11-19T12:38:09.637Z,42.27
2022-11-19T12:39:09.642Z,42.58
2022-11-19T12:40:09.616Z,42.79
2022-11-19T12:41:09.793Z,42.50
2022-11-19T12:42:09.668Z,42.32
2022-11-19T12:43:09.602Z,43.13
2022-11-19T12:44:09.616Z,43.26
2022-11-19T12:45:09.565Z,44.18
2022-11-19T12:46:09.596Z,44.29
2022-11-19T12:47:09.556Z,43.67
2022-11-19T12:48:09.547Z,42.35
2022-11-19T12:49:09.530Z,42.47
2022-11-19T12:50:09.527Z,42.80
2022-11-19T12:51:09.548Z,44.14
2022-11-19T12:52:09.501Z,44.26
2022-11-19T12:53:09.476Z,44.26
2022-11-19T12:54:11.606Z,45.09
2022-11-19T12:55:09.448Z,44.37
2022-11-19T12:56:09.455Z,45.81